createdAt,value
2022-09-06T00:00:12.999Z,1.95
2022-09-06T00:02:40.350Z,1.90
2022-09-06T00:05:09.041Z,1.50
2022-09-06T00:07:35.928Z,1.70
2022-09-06T00:10:03.212Z,1.70
2022-09-06T00:12:30.439Z,1.85
2022-09-06T00:17:24.505Z,1.70
2022-09-06T00:19:51.431Z,1.48
2022-09-06T00:22:18.265Z,1.50
2022-09-06T00:27:12.203Z,1.60
2022-09-06T00:29:39.051Z,1.58
2022-09-06T00:32:06.028Z,1.23
2022-09-06T00:34:32.908Z,1.20
2022-09-06T00:39:26.871Z,1.25
2022-09-06T00:41:53.760Z,1.30
2022-09-06T00:44:20.575Z,1.10
2022-09-06T00:46:48.746Z,1.20
2022-09-06T00:49:26.360Z,1.45
2022-09-06T00:51:59.525Z,1.35
2022-09-06T00:54:26.458Z,1.40
2022-09-06T00:56:53.321Z,1.30
2022-09-06T00:59:20.254Z,0.98
2022-09-06T01:01:47.186Z,1.27
2022-09-06T01:04:14.145Z,1.15
2022-09-06T01:06:54.941Z,1.30
2022-09-06T01:09:21.705Z,1.20
2022-09-06T01:14:44.113Z,1.02
2022-09-06T01:17:54.852Z,1.05
2022-09-06T01:26:16.778Z,1.38
2022-09-06T01:28:45.818Z,1.10
2022-09-06T01:31:35.436Z,0.90
2022-09-06T01:39:37.749Z,1.15
2022-09-06T01:42:21.074Z,1.13
2022-09-06T01:44:55.581Z,1.20
2022-09-06T01:56:57.401Z,1.10
2022-09-06T01:59:40.733Z,1.20
2022-09-06T02:05:13.978Z,1.00
2022-09-06T02:07:42.682Z,1.00
2022-09-06T02:10:27.957Z,1.08
2022-09-06T02:15:33.419Z,0.95
2022-09-06T02:18:07.084Z,1.20
2022-09-06T02:20:36.110Z,1.17
2022-09-06T02:23:05.969Z,0.82
2022-09-06T02:25:39.373Z,1.20
2022-09-06T02:28:08.119Z,1.25
2022-09-06T02:30:38.911Z,0.93
2022-09-06T02:33:10.110Z,1.20
2022-09-06T02:35:51.945Z,1.00
2022-09-06T02:38:21.304Z,0.88
2022-09-06T02:43:15.068Z,1.10
2022-09-06T02:45:41.919Z,1.10
2022-09-06T02:48:08.729Z,1.10
2022-09-06T02:50:37.047Z,1.20
2022-09-06T02:53:12.946Z,1.73
2022-09-06T02:55:40.095Z,1.15
2022-09-06T02:58:09.137Z,1.23
2022-09-06T03:00:36.358Z,1.10
2022-09-06T03:03:03.662Z,1.30
2022-09-06T03:05:30.860Z,1.33
2022-09-06T03:07:58.007Z,1.17
2022-09-06T03:10:26.217Z,1.20
2022-09-06T03:12:53.566Z,1.13
2022-09-06T03:15:20.458Z,1.13
2022-09-06T03:17:47.268Z,1.10
2022-09-06T03:20:14.224Z,1.10
2022-09-06T03:22:41.427Z,1.13
2022-09-06T03:25:09.997Z,1.35
2022-09-06T03:27:37.439Z,1.37
2022-09-06T03:30:05.768Z,1.05
2022-09-06T03:32:32.648Z,1.48
2022-09-06T03:34:59.724Z,1.25
2022-09-06T03:37:26.991Z,1.30
2022-09-06T03:39:53.998Z,1.13
2022-09-06T03:42:21.809Z,1.40
2022-09-06T03:44:48.677Z,1.20
2022-09-06T03:47:19.276Z,1.38
2022-09-06T03:49:46.865Z,1.08
2022-09-06T03:52:14.104Z,1.25
2022-09-06T03:54:40.950Z,1.05
2022-09-06T03:57:07.869Z,1.00
2022-09-06T03:59:34.680Z,1.25
2022-09-06T04:02:01.783Z,1.13
2022-09-06T04:04:28.770Z,1.23
2022-09-06T04:06:55.628Z,1.23
2022-09-06T04:09:22.418Z,1.38
2022-09-06T04:11:49.228Z,1.10
2022-09-06T04:14:16.272Z,1.40
2022-09-06T04:16:43.194Z,1.10
2022-09-06T04:19:10.176Z,1.23
2022-09-06T04:21:38.774Z,1.15
2022-09-06T04:24:05.621Z,1.13
2022-09-06T04:26:32.551Z,1.20
2022-09-06T04:28:59.374Z,1.25
2022-09-06T04:33:53.319Z,1.30
2022-09-06T04:36:20.159Z,1.13
2022-09-06T04:38:46.962Z,1.10
2022-09-06T04:41:16.297Z,1.38
2022-09-06T04:43:43.392Z,1.10
2022-09-06T04:46:24.826Z,1.30
2022-09-06T04:48:52.753Z,0.93
2022-09-06T04:51:20.153Z,1.15
2022-09-06T04:53:47.152Z,1.40
2022-09-06T04:56:17.520Z,1.10
2022-09-06T04:58:45.249Z,1.20
2022-09-06T05:01:12.546Z,1.30
2022-09-06T05:03:39.417Z,1.23
2022-09-06T05:06:08.046Z,1.20
2022-09-06T05:08:40.812Z,1.40
2022-09-06T05:11:08.815Z,1.15
2022-09-06T05:13:35.668Z,1.42
2022-09-06T05:16:03.495Z,1.40
2022-09-06T05:18:30.486Z,1.20
2022-09-06T05:20:57.544Z,1.35
2022-09-06T05:23:24.732Z,1.20
2022-09-06T05:25:51.977Z,1.30
2022-09-06T05:28:19.228Z,1.40
2022-09-06T05:30:46.541Z,1.23
2022-09-06T05:33:18.897Z,1.20
2022-09-06T05:35:45.723Z,1.60
2022-09-06T05:38:12.558Z,1.45
2022-09-06T05:40:39.409Z,1.20
2022-09-06T05:43:06.273Z,1.33
2022-09-06T05:45:33.148Z,1.58
2022-09-06T05:47:59.917Z,1.40
2022-09-06T05:50:26.668Z,1.25
2022-09-06T05:52:56.495Z,1.40
2022-09-06T05:55:23.435Z,1.55
2022-09-06T05:57:50.204Z,1.42
2022-09-06T06:00:17.128Z,1.45
2022-09-06T06:02:46.599Z,1.42
2022-09-06T06:07:40.840Z,1.42
2022-09-06T06:10:07.880Z,1.40
2022-09-06T06:12:34.657Z,1.30
2022-09-06T06:15:01.450Z,1.33
2022-09-06T06:17:28.245Z,1.48
2022-09-06T06:19:55.159Z,1.50
2022-09-06T06:22:21.936Z,1.20
2022-09-06T06:24:48.708Z,1.20
2022-09-06T06:27:15.482Z,1.73
2022-09-06T06:29:42.241Z,1.30
2022-09-06T06:32:09.115Z,1.50
2022-09-06T06:34:35.979Z,1.60
2022-09-06T06:39:29.802Z,1.45
2022-09-06T06:41:56.598Z,1.40
2022-09-06T06:44:23.401Z,1.40
2022-09-06T06:46:50.155Z,1.50
2022-09-06T06:49:16.923Z,1.20
2022-09-06T06:51:43.781Z,1.42
2022-09-06T06:54:10.572Z,1.42
2022-09-06T06:56:39.229Z,1.50
2022-09-06T06:59:07.828Z,1.50
2022-09-06T07:01:36.101Z,1.40
2022-09-06T07:04:03.695Z,1.17
2022-09-06T07:09:18.769Z,1.30
2022-09-06T07:11:46.491Z,1.20
2022-09-06T07:14:13.268Z,1.27
2022-09-06T07:16:40.133Z,1.35
2022-09-06T07:19:07.112Z,1.30
2022-09-06T07:21:37.113Z,1.00
2022-09-06T07:24:08.599Z,1.17
2022-09-06T07:26:37.546Z,1.20
2022-09-06T07:29:05.714Z,1.50
2022-09-06T07:34:20.692Z,1.00
2022-09-06T07:36:48.268Z,1.17
2022-09-06T07:39:15.185Z,1.48
2022-09-06T07:41:42.905Z,1.13
2022-09-06T07:44:09.718Z,1.10
2022-09-06T07:46:36.642Z,1.30
2022-09-06T07:49:06.724Z,1.60
2022-09-06T07:51:33.630Z,1.63
2022-09-06T07:54:28.648Z,1.30
2022-09-06T07:56:47.156Z,1.75
2022-09-06T07:59:13.939Z,1.40
2022-09-06T08:01:41.434Z,1.20
2022-09-06T08:04:10.397Z,1.40
2022-09-06T08:09:29.443Z,1.60
2022-09-06T08:11:56.294Z,1.35
2022-09-06T08:14:23.142Z,1.30
2022-09-06T08:16:50.447Z,1.77
2022-09-06T08:19:18.348Z,1.40
2022-09-06T08:21:45.259Z,1.70
2022-09-06T08:24:12.105Z,1.42
2022-09-06T08:26:40.566Z,1.58
2022-09-06T08:29:08.832Z,2.03
2022-09-06T08:31:37.740Z,2.80
2022-09-06T08:34:04.974Z,2.55
2022-09-06T08:36:32.244Z,2.60
2022-09-06T08:39:00.327Z,2.22
2022-09-06T08:41:28.245Z,2.60
2022-09-06T08:46:59.519Z,2.28
2022-09-06T08:49:29.099Z,2.22
2022-09-06T08:52:05.916Z,2.50
2022-09-06T08:54:39.019Z,2.75
2022-09-06T09:00:20.033Z,3.15
2022-09-06T09:02:52.419Z,3.10
2022-09-06T09:05:23.608Z,3.42
2022-09-06T09:10:59.199Z,3.30
2022-09-06T09:16:30.362Z,3.53
2022-09-06T09:19:05.654Z,3.17
2022-09-06T09:21:40.053Z,3.60
2022-09-06T09:24:12.096Z,3.67
2022-09-06T09:26:50.737Z,3.67
2022-09-06T09:29:18.285Z,3.50
2022-09-06T09:31:54.191Z,3.05
2022-09-06T09:34:38.770Z,3.10
2022-09-06T09:40:38.415Z,2.92
2022-09-06T09:43:16.194Z,2.70
2022-09-06T09:45:44.198Z,2.75
2022-09-06T09:48:20.420Z,2.80
2022-09-06T09:50:47.619Z,2.10
2022-09-06T09:55:49.761Z,1.55
2022-09-06T09:58:34.073Z,2.05
2022-09-06T10:01:11.833Z,1.70
2022-09-06T10:09:22.801Z,1.70
2022-09-06T10:11:56.227Z,2.40
2022-09-06T10:14:44.459Z,2.67
2022-09-06T10:22:53.083Z,2.22
2022-09-06T10:25:38.673Z,2.00
2022-09-06T10:28:11.838Z,2.20
2022-09-06T10:37:28.333Z,1.65
2022-09-06T10:42:54.698Z,1.63
2022-09-06T10:53:49.111Z,1.50
2022-09-06T11:02:30.047Z,1.40
2022-09-06T11:10:45.236Z,1.40
2022-09-06T11:13:23.596Z,1.50
2022-09-06T11:16:14.675Z,1.45
2022-09-06T11:18:49.431Z,1.60
2022-09-06T11:24:11.754Z,1.35
2022-09-06T11:26:45.850Z,1.48
2022-09-06T11:29:22.703Z,1.48
2022-09-06T11:34:53.370Z,1.33
2022-09-06T11:37:49.630Z,1.30
2022-09-06T11:42:51.437Z,1.10
2022-09-06T11:53:21.923Z,4.00
2022-09-06T11:56:02.047Z,3.53
2022-09-06T11:58:51.391Z,3.70
2022-09-06T12:06:38.899Z,2.55
2022-09-06T12:12:46.029Z,2.37
2022-09-06T12:15:42.749Z,2.40
2022-09-06T12:18:09.905Z,1.90
2022-09-06T12:23:34.585Z,2.17
2022-09-06T12:26:06.248Z,2.40
2022-09-06T12:28:52.579Z,2.38
2022-09-06T12:31:55.236Z,2.28
2022-09-06T12:34:27.620Z,2.20
2022-09-06T12:36:57.466Z,2.10
2022-09-06T12:39:24.952Z,2.08
2022-09-06T12:42:02.641Z,2.08
2022-09-06T12:44:33.590Z,1.92
2022-09-06T12:47:10.121Z,1.95
2022-09-06T12:49:36.962Z,2.15
2022-09-06T12:52:12.956Z,2.00
2022-09-06T12:54:48.612Z,2.30
2022-09-06T12:59:53.817Z,1.83
2022-09-06T13:02:32.622Z,1.85
2022-09-06T13:05:08.284Z,1.70
2022-09-06T13:10:17.475Z,1.70
2022-09-06T13:12:46.196Z,1.50
2022-09-06T13:15:31.237Z,1.50
2022-09-06T13:18:36.473Z,1.70
2022-09-06T13:21:18.910Z,1.38
2022-09-06T13:34:56.816Z,1.60
2022-09-06T13:37:29.728Z,1.70
2022-09-06T13:42:38.163Z,1.73
2022-09-06T13:45:37.816Z,1.60
2022-09-06T13:48:28.039Z,1.60
2022-09-06T13:50:51.394Z,1.20
2022-09-06T13:53:21.286Z,1.30
2022-09-06T13:55:48.083Z,1.27
2022-09-06T13:58:15.465Z,1.40
2022-09-06T14:00:42.281Z,1.30
2022-09-06T14:03:11.862Z,1.08
2022-09-06T14:05:39.058Z,1.35
2022-09-06T14:10:33.086Z,1.38
2022-09-06T14:15:27.084Z,1.48
2022-09-06T14:17:53.974Z,1.50
2022-09-06T14:20:20.770Z,1.45
2022-09-06T14:25:14.718Z,1.60
2022-09-06T14:27:41.600Z,1.60
2022-09-06T14:30:09.071Z,1.83
2022-09-06T14:32:35.876Z,1.70
2022-09-06T14:35:05.450Z,1.38
2022-09-06T14:40:00.631Z,1.23
2022-09-06T14:42:28.431Z,1.50
2022-09-06T14:44:55.295Z,2.67
2022-09-06T14:49:49.178Z,2.20
2022-09-06T14:52:15.997Z,1.92
2022-09-06T14:57:09.888Z,2.10
2022-09-06T14:59:36.765Z,2.50
2022-09-06T15:02:04.098Z,20.05
2022-09-06T15:04:31.071Z,32.55
2022-09-06T15:06:58.755Z,33.10
2022-09-06T15:09:25.818Z,28.20
2022-09-06T15:11:52.970Z,25.48
2022-09-06T15:14:25.305Z,23.80
2022-09-06T15:16:56.093Z,18.38
2022-09-06T15:19:24.741Z,16.38
2022-09-06T15:21:51.618Z,17.40
2022-09-06T15:24:19.133Z,14.65
2022-09-06T15:26:46.009Z,16.15
2022-09-06T15:29:13.776Z,14.18
2022-09-06T15:31:41.924Z,13.77
2022-09-06T15:34:09.884Z,13.43
2022-09-06T15:36:37.375Z,14.05
2022-09-06T15:39:05.485Z,14.57
2022-09-06T15:41:35.658Z,13.88
2022-09-06T15:44:10.488Z,13.75
2022-09-06T15:46:49.965Z,13.18
2022-09-06T15:49:23.265Z,13.95
2022-09-06T15:51:52.722Z,13.13
2022-09-06T15:54:41.010Z,13.02
2022-09-06T15:57:08.581Z,13.75
2022-09-06T15:59:35.452Z,12.85
2022-09-06T16:02:02.333Z,11.70
2022-09-06T16:04:29.169Z,11.77
2022-09-06T16:06:56.772Z,12.15
2022-09-06T16:09:23.800Z,11.52
2022-09-06T16:11:50.732Z,10.18
2022-09-06T16:14:18.046Z,10.35
2022-09-06T16:16:44.980Z,9.50
2022-09-06T16:21:42.010Z,9.03
2022-09-06T16:24:11.360Z,8.95
2022-09-06T16:29:08.428Z,8.40
2022-09-06T16:31:39.731Z,8.68
2022-09-06T16:36:39.263Z,6.63
2022-09-06T16:39:07.265Z,5.07
2022-09-06T16:41:39.406Z,4.80
2022-09-06T16:44:07.766Z,3.65
2022-09-06T16:46:34.776Z,3.38
2022-09-06T16:49:02.880Z,2.58
2022-09-06T16:51:31.324Z,2.28
2022-09-06T16:53:58.784Z,1.97
2022-09-06T16:56:27.968Z,1.60
2022-09-06T16:58:57.226Z,1.08
2022-09-06T17:01:25.502Z,1.27
2022-09-06T17:03:52.528Z,1.35
2022-09-06T17:06:19.777Z,1.50
2022-09-06T17:08:46.717Z,1.40
2022-09-06T17:11:16.653Z,1.52
2022-09-06T17:13:45.073Z,1.20
2022-09-06T17:16:30.916Z,1.23
2022-09-06T17:18:59.066Z,1.40
2022-09-06T17:21:26.146Z,1.35
2022-09-06T17:23:53.929Z,1.00
2022-09-06T17:26:22.137Z,1.10
2022-09-06T17:28:49.920Z,1.20
2022-09-06T17:31:21.118Z,2.63
2022-09-06T17:33:52.331Z,2.53
2022-09-06T17:36:23.508Z,2.00
2022-09-06T17:38:53.296Z,1.65
2022-09-06T17:41:21.926Z,1.60
2022-09-06T17:43:49.268Z,1.30
2022-09-06T17:48:43.573Z,1.30
2022-09-06T17:51:11.357Z,1.88
2022-09-06T17:53:39.066Z,1.40
2022-09-06T17:56:07.491Z,1.38
2022-09-06T18:01:05.969Z,1.58
2022-09-06T18:03:33.105Z,1.63
2022-09-06T18:06:08.850Z,1.25
2022-09-06T18:08:36.451Z,1.27
2022-09-06T18:11:18.172Z,1.40
2022-09-06T18:13:46.069Z,1.88
2022-09-06T18:18:41.908Z,1.38
2022-09-06T18:21:08.797Z,2.55
2022-09-06T18:23:36.341Z,5.53
2022-09-06T18:26:05.921Z,8.60
2022-09-06T18:28:34.614Z,7.55
2022-09-06T18:31:05.302Z,5.50
2022-09-06T18:33:32.369Z,5.00
2022-09-06T18:35:59.509Z,3.78
2022-09-06T18:38:26.587Z,2.80
2022-09-06T18:40:58.929Z,2.58
2022-09-06T18:43:36.364Z,1.98
2022-09-06T18:46:12.868Z,1.67
2022-09-06T18:48:40.639Z,1.77
2022-09-06T18:51:11.461Z,1.65
2022-09-06T18:53:43.963Z,1.38
2022-09-06T18:56:13.277Z,1.30
2022-09-06T18:58:40.869Z,1.73
2022-09-06T19:01:10.073Z,1.92
2022-09-06T19:03:37.990Z,2.67
2022-09-06T19:06:06.974Z,5.07
2022-09-06T19:08:34.120Z,4.90
2022-09-06T19:11:03.238Z,3.80
2022-09-06T19:13:30.713Z,3.47
2022-09-06T19:15:58.163Z,4.60
2022-09-06T19:18:25.821Z,6.22
2022-09-06T19:23:34.258Z,6.53
2022-09-06T19:26:03.877Z,4.35
2022-09-06T19:28:31.132Z,3.70
2022-09-06T19:30:58.212Z,3.50
2022-09-06T19:33:25.815Z,2.97
2022-09-06T19:36:10.276Z,2.88
2022-09-06T19:39:01.477Z,2.40
2022-09-06T19:46:25.066Z,2.17
2022-09-06T19:48:53.719Z,1.88
2022-09-06T19:51:21.040Z,2.67
2022-09-06T19:53:50.002Z,7.15
2022-09-06T19:56:25.376Z,6.70
2022-09-06T19:58:57.275Z,5.82
2022-09-06T20:01:25.945Z,3.70
2022-09-06T20:03:53.108Z,2.75
2022-09-06T20:06:20.092Z,2.45
2022-09-06T20:08:50.643Z,2.30
2022-09-06T20:11:18.025Z,2.05
2022-09-06T20:16:13.052Z,1.80
2022-09-06T20:18:40.374Z,1.90
2022-09-06T20:21:07.330Z,2.50
2022-09-06T20:23:34.784Z,2.35
2022-09-06T20:28:33.211Z,2.10
2022-09-06T20:31:05.012Z,1.90
2022-09-06T20:33:32.665Z,2.28
2022-09-06T20:36:05.173Z,2.00
2022-09-06T20:38:33.230Z,1.98
2022-09-06T20:43:36.578Z,1.70
2022-09-06T20:46:15.468Z,2.05
2022-09-06T20:48:44.889Z,1.90
2022-09-06T20:51:19.247Z,2.30
2022-09-06T20:54:01.784Z,1.67
2022-09-06T20:56:30.862Z,1.80
2022-09-06T20:59:00.630Z,1.40
2022-09-06T21:01:30.098Z,2.30
2022-09-06T21:03:59.396Z,2.17
2022-09-06T21:06:27.900Z,1.70
2022-09-06T21:08:55.750Z,1.63
2022-09-06T21:13:52.676Z,2.80
2022-09-06T21:18:56.401Z,2.00
2022-09-06T21:21:24.742Z,1.88
2022-09-06T21:23:51.734Z,1.52
2022-09-06T21:26:18.796Z,1.90
2022-09-06T21:28:46.765Z,1.60
2022-09-06T21:31:22.236Z,1.70
2022-09-06T21:33:54.370Z,1.40
2022-09-06T21:39:02.888Z,1.40
2022-09-06T21:41:30.769Z,1.35
2022-09-06T21:43:59.588Z,1.20
2022-09-06T21:49:09.692Z,1.45
2022-09-06T21:51:36.901Z,1.38
2022-09-06T21:54:05.011Z,1.05
2022-09-06T21:56:36.865Z,1.15
2022-09-06T21:59:04.940Z,1.27
2022-09-06T22:01:34.091Z,1.33
2022-09-06T22:04:02.297Z,1.20
2022-09-06T22:06:30.600Z,1.40
2022-09-06T22:08:58.964Z,1.38
2022-09-06T22:11:28.423Z,1.20
2022-09-06T22:16:24.968Z,1.00
2022-09-06T22:18:51.832Z,1.10
2022-09-06T22:21:21.096Z,1.25
2022-09-06T22:23:52.875Z,1.02
2022-09-06T22:26:20.444Z,1.10
2022-09-06T22:28:48.021Z,1.05
2022-09-06T22:31:14.922Z,1.13
2022-09-06T22:36:10.284Z,1.00
2022-09-06T22:38:37.535Z,1.30
2022-09-06T22:41:04.673Z,1.02
2022-09-06T22:43:32.013Z,1.00
2022-09-06T22:48:36.813Z,1.00
2022-09-06T22:51:04.274Z,1.15
2022-09-06T22:53:31.586Z,0.90
2022-09-06T22:58:30.071Z,0.82
2022-09-06T23:01:04.947Z,0.98
2022-09-06T23:03:31.970Z,0.75
2022-09-06T23:06:02.598Z,0.77
2022-09-06T23:08:29.951Z,1.20
2022-09-06T23:10:56.961Z,1.08
2022-09-06T23:13:23.811Z,1.00
2022-09-06T23:15:50.694Z,0.90
2022-09-06T23:18:17.576Z,1.00
2022-09-06T23:25:39.400Z,0.80
2022-09-06T23:28:06.954Z,0.98
2022-09-06T23:30:37.682Z,0.80
2022-09-06T23:33:04.977Z,1.00
2022-09-06T23:35:31.784Z,0.88
2022-09-06T23:37:58.634Z,1.00
2022-09-06T23:40:25.459Z,1.15
2022-09-06T23:42:52.286Z,0.75
2022-09-06T23:45:19.153Z,0.90
2022-09-06T23:47:46.037Z,0.88
2022-09-06T23:50:12.914Z,0.70
2022-09-06T23:52:39.696Z,0.80
2022-09-06T23:55:09.259Z,0.80
2022-09-06T23:57:36.191Z,0.80
